Check out our new PWSWeather beta!
PWSweather.com
Personal Weather Stations
Station Observations
GRD01
Warsaw, LesznoPL 05-084

WarsawLesznoPL 05-084

Lat: 52.257404, Lon: 20.564847

Elevation: 298

Station Type: WH3080

http://pogoda.kampinos.waw.pl

High Low Average
Temperature 48.6°F9.2°C 36.5°F2.5°C 43.6°F6.4°C
Dew Point 35.8°F2.1°C 30.4°F-0.9°C 33.8°F1.0°C
Winds 22.8 mph 36.7 kmh 0.7 mph 1.1 kmh 8.0 mph SW12.9 kmh SW
Wind Gusts 31.1 mph50.1 kmh 3.8 mph6.1 kmh 16.0 mph25.7 kmh
Humidity 83% 52% 69%
Pressure 29.73 in1006.8 mb 29.27 in991.2 mb -
Precipitation 0.17 in4.3 mm - -
Hour Temp Dew Point Humidity Winds Wind Gusts Pressure Precip Precip Rate Daily Precip Total
12:14 AM 47.5°F8.6°C 34.3°F1.3°C 60% 9.8 mph W15.8 kmh W 19.0 mph30.6 kmh 29.70 in1005.8 mb 0.00 in0.0 mm 0.00 in0.0 mm 0.00 in0.0 mm
12:29 AM 47.5°F8.6°C 33.0°F0.6°C 57% 9.8 mph W15.8 kmh W 24.4 mph39.3 kmh 29.71 in1006.1 mb 0.00 in0.0 mm 0.00 in0.0 mm 0.00 in0.0 mm
12:44 AM 47.5°F8.6°C 31.6°F-0.2°C 54% 18.3 mph WNW29.5 kmh WNW 25.9 mph41.7 kmh 29.71 in1006.1 mb 0.00 in0.0 mm 0.00 in0.0 mm 0.00 in0.0 mm
12:59 AM 47.5°F8.6°C 30.7°F-0.7°C 52% 9.8 mph WSW15.8 kmh WSW 22.1 mph35.6 kmh 29.71 in1006.1 mb 0.00 in0.0 mm 0.00 in0.0 mm 0.00 in0.0 mm
01:14 AM 47.1°F8.4°C 30.4°F-0.9°C 52% 8.3 mph WSW13.4 kmh WSW 16.8 mph27.0 kmh 29.70 in1005.8 mb 0.00 in0.0 mm 0.00 in0.0 mm 0.00 in0.0 mm
01:29 AM 46.8°F8.2°C 30.5°F-0.8°C 53% 9.8 mph WSW15.8 kmh WSW 19.7 mph31.7 kmh 29.72 in1006.4 mb 0.00 in0.0 mm 0.00 in0.0 mm 0.00 in0.0 mm
01:44 AM 46.4°F8.0°C 31.1°F-0.5°C 55% 7.6 mph SW12.2 kmh SW 15.2 mph24.5 kmh 29.71 in1006.1 mb 0.00 in0.0 mm 0.00 in0.0 mm 0.00 in0.0 mm
01:59 AM 45.9°F7.7°C 31.5°F-0.3°C 57% 3.8 mph SW6.1 kmh SW 15.9 mph25.6 kmh 29.71 in1006.1 mb 0.00 in0.0 mm 0.00 in0.0 mm 0.00 in0.0 mm
02:14 AM 45.7°F7.6°C 32.6°F0.3°C 60% 8.3 mph WSW13.4 kmh WSW 17.4 mph28.0 kmh 29.71 in1006.1 mb 0.00 in0.0 mm 0.00 in0.0 mm 0.00 in0.0 mm
02:29 AM 45.5°F7.5°C 32.8°F0.4°C 61% 9.8 mph SW15.8 kmh SW 15.9 mph25.6 kmh 29.71 in1006.1 mb 0.00 in0.0 mm 0.00 in0.0 mm 0.00 in0.0 mm
02:44 AM 45.3°F7.4°C 33.9°F1.1°C 64% 9.2 mph WSW14.8 kmh WSW 18.3 mph29.5 kmh 29.70 in1005.8 mb 0.00 in0.0 mm 0.00 in0.0 mm 0.00 in0.0 mm
02:59 AM 45.7°F7.6°C 32.6°F0.3°C 60% 6.0 mph S9.7 kmh S 15.9 mph25.6 kmh 29.69 in1005.4 mb 0.00 in0.0 mm 0.00 in0.0 mm 0.00 in0.0 mm
03:14 AM 45.5°F7.5°C 32.4°F0.2°C 60% 8.3 mph S13.4 kmh S 21.3 mph34.3 kmh 29.69 in1005.4 mb 0.00 in0.0 mm 0.00 in0.0 mm 0.00 in0.0 mm
03:29 AM 45.5°F7.5°C 32.4°F0.2°C 60% 6.9 mph SW11.1 kmh SW 21.3 mph34.3 kmh 29.70 in1005.8 mb 0.00 in0.0 mm 0.00 in0.0 mm 0.00 in0.0 mm
03:44 AM 45.5°F7.5°C 32.4°F0.2°C 60% 6.9 mph SSW11.1 kmh SSW 22.1 mph35.6 kmh 29.69 in1005.4 mb 0.00 in0.0 mm 0.00 in0.0 mm 0.00 in0.0 mm
03:59 AM 45.5°F7.5°C 32.4°F0.2°C 60% 11.4 mph SSW18.3 kmh SSW 25.9 mph41.7 kmh 29.69 in1005.4 mb 0.00 in0.0 mm 0.00 in0.0 mm 0.00 in0.0 mm
04:14 AM 45.3°F7.4°C 33.9°F1.1°C 64% 8.3 mph SW13.4 kmh SW 21.3 mph34.3 kmh 29.71 in1006.1 mb 0.00 in0.0 mm 0.00 in0.0 mm 0.00 in0.0 mm
04:29 AM 45.3°F7.4°C 33.9°F1.1°C 64% 10.7 mph SW17.2 kmh SW 22.1 mph35.6 kmh 29.70 in1005.8 mb 0.00 in0.0 mm 0.00 in0.0 mm 0.00 in0.0 mm
04:44 AM 45.1°F7.3°C 33.7°F0.9°C 64% 6.0 mph SW9.7 kmh SW 22.1 mph35.6 kmh 29.70 in1005.8 mb 0.00 in0.0 mm 0.00 in0.0 mm 0.00 in0.0 mm
04:59 AM 45.0°F7.2°C 34.3°F1.3°C 66% 10.7 mph SW17.2 kmh SW 15.2 mph24.5 kmh 29.69 in1005.4 mb 0.00 in0.0 mm 0.00 in0.0 mm 0.00 in0.0 mm
05:14 AM 44.8°F7.1°C 34.9°F1.6°C 68% 11.4 mph S18.3 kmh S 21.3 mph34.3 kmh 29.69 in1005.4 mb 0.00 in0.0 mm 0.00 in0.0 mm 0.00 in0.0 mm
05:29 AM 44.8°F7.1°C 34.9°F1.6°C 68% 13.0 mph SW20.9 kmh SW 21.3 mph34.3 kmh 29.69 in1005.4 mb 0.00 in0.0 mm 0.00 in0.0 mm 0.00 in0.0 mm
05:44 AM 44.6°F7.0°C 34.7°F1.5°C 68% 9.2 mph SW14.8 kmh SW 20.6 mph33.2 kmh 29.69 in1005.4 mb 0.00 in0.0 mm 0.00 in0.0 mm 0.00 in0.0 mm
05:59 AM 44.2°F6.8°C 35.1°F1.7°C 70% 15.2 mph SW24.5 kmh SW 21.3 mph34.3 kmh 29.70 in1005.8 mb 0.00 in0.0 mm 0.00 in0.0 mm 0.00 in0.0 mm
06:14 AM 44.1°F6.7°C 34.9°F1.6°C 70% 7.6 mph SW12.2 kmh SW 15.9 mph25.6 kmh 29.70 in1005.8 mb 0.00 in0.0 mm 0.00 in0.0 mm 0.00 in0.0 mm
06:29 AM 43.3°F6.3°C 34.6°F1.4°C 71% 7.6 mph WSW12.2 kmh WSW 16.8 mph27.0 kmh 29.70 in1005.8 mb 0.00 in0.0 mm 0.00 in0.0 mm 0.00 in0.0 mm
06:44 AM 43.2°F6.2°C 34.7°F1.5°C 72% 5.4 mph SW8.7 kmh SW 16.8 mph27.0 kmh 29.70 in1005.8 mb 0.00 in0.0 mm 0.00 in0.0 mm 0.00 in0.0 mm
06:59 AM 43.3°F6.3°C 35.3°F1.8°C 73% 10.7 mph WSW17.2 kmh WSW 18.3 mph29.5 kmh 29.71 in1006.1 mb 0.00 in0.0 mm 0.00 in0.0 mm 0.00 in0.0 mm
07:14 AM 43.5°F6.4°C 35.1°F1.7°C 72% 8.3 mph W13.4 kmh W 15.9 mph25.6 kmh 29.71 in1006.1 mb 0.00 in0.0 mm 0.00 in0.0 mm 0.00 in0.0 mm
07:29 AM 43.7°F6.5°C 34.9°F1.6°C 71% 11.4 mph WSW18.3 kmh WSW 18.3 mph29.5 kmh 29.71 in1006.1 mb 0.00 in0.0 mm 0.00 in0.0 mm 0.00 in0.0 mm
07:44 AM 43.9°F6.6°C 34.7°F1.5°C 70% 12.1 mph W19.5 kmh W 16.8 mph27.0 kmh 29.72 in1006.4 mb 0.00 in0.0 mm 0.00 in0.0 mm 0.00 in0.0 mm
07:59 AM 44.2°F6.8°C 34.3°F1.3°C 68% 6.9 mph W11.1 kmh W 14.5 mph23.3 kmh 29.72 in1006.4 mb 0.00 in0.0 mm 0.00 in0.0 mm 0.00 in0.0 mm
08:14 AM 44.4°F6.9°C 33.4°F0.8°C 65% 9.8 mph WSW15.8 kmh WSW 17.4 mph28.0 kmh 29.72 in1006.4 mb 0.00 in0.0 mm 0.00 in0.0 mm 0.00 in0.0 mm
08:29 AM 44.4°F6.9°C 33.8°F1.0°C 66% 11.4 mph SW18.3 kmh SW 14.5 mph23.3 kmh 29.73 in1006.8 mb 0.00 in0.0 mm 0.00 in0.0 mm 0.00 in0.0 mm
08:44 AM 44.1°F6.7°C 33.4°F0.8°C 66% 22.8 mph W36.7 kmh W 31.1 mph50.1 kmh 29.72 in1006.4 mb 0.00 in0.0 mm 0.00 in0.0 mm 0.00 in0.0 mm
08:59 AM 42.8°F6.0°C 33.3°F0.7°C 69% 7.6 mph NW12.2 kmh NW 19.7 mph31.7 kmh 29.72 in1006.4 mb 0.00 in0.0 mm 0.00 in0.0 mm 0.00 in0.0 mm
09:14 AM 42.8°F6.0°C 34.0°F1.1°C 71% 6.9 mph WSW11.1 kmh WSW 15.2 mph24.5 kmh 29.72 in1006.4 mb 0.00 in0.0 mm 0.00 in0.0 mm 0.00 in0.0 mm
09:29 AM 43.0°F6.1°C 34.6°F1.4°C 72% 8.3 mph WSW13.4 kmh WSW 12.1 mph19.5 kmh 29.71 in1006.1 mb 0.00 in0.0 mm 0.00 in0.0 mm 0.00 in0.0 mm
09:44 AM 43.7°F6.5°C 35.3°F1.8°C 72% 7.6 mph SW12.2 kmh SW 15.2 mph24.5 kmh 29.70 in1005.8 mb 0.00 in0.0 mm 0.00 in0.0 mm 0.00 in0.0 mm
09:59 AM 44.2°F6.8°C 35.8°F2.1°C 72% 9.8 mph S15.8 kmh S 16.8 mph27.0 kmh 29.69 in1005.4 mb 0.00 in0.0 mm 0.00 in0.0 mm 0.00 in0.0 mm
10:14 AM 45.5°F7.5°C 34.8°F1.6°C 66% 13.6 mph WSW21.9 kmh WSW 21.3 mph34.3 kmh 29.70 in1005.8 mb 0.00 in0.0 mm 0.00 in0.0 mm 0.00 in0.0 mm
10:29 AM 46.2°F7.9°C 34.7°F1.5°C 64% 8.3 mph W13.4 kmh W 14.5 mph23.3 kmh 29.71 in1006.1 mb 0.00 in0.0 mm 0.00 in0.0 mm 0.00 in0.0 mm
10:44 AM 46.8°F8.2°C 34.8°F1.6°C 63% 16.8 mph WSW27.0 kmh WSW 23.5 mph37.8 kmh 29.70 in1005.8 mb 0.00 in0.0 mm 0.00 in0.0 mm 0.00 in0.0 mm
10:59 AM 47.7°F8.7°C 34.9°F1.6°C 61% 14.5 mph WSW23.3 kmh WSW 22.8 mph36.7 kmh 29.69 in1005.4 mb 0.00 in0.0 mm 0.00 in0.0 mm 0.00 in0.0 mm
11:14 AM 48.4°F9.1°C 33.8°F1.0°C 57% 17.4 mph WSW28.0 kmh WSW 25.1 mph40.4 kmh 29.68 in1005.1 mb 0.00 in0.0 mm 0.00 in0.0 mm 0.00 in0.0 mm
11:29 AM 48.6°F9.2°C 32.7°F0.4°C 54% 13.6 mph W21.9 kmh W 21.3 mph34.3 kmh 29.67 in1004.7 mb 0.00 in0.0 mm 0.00 in0.0 mm 0.00 in0.0 mm
11:44 AM 48.2°F9.0°C 31.9°F-0.1°C 53% 6.9 mph WSW11.1 kmh WSW 20.6 mph33.2 kmh 29.67 in1004.7 mb 0.00 in0.0 mm 0.00 in0.0 mm 0.00 in0.0 mm
11:59 AM 47.7°F8.7°C 33.2°F0.7°C 57% 9.2 mph SSW14.8 kmh SSW 16.8 mph27.0 kmh 29.67 in1004.7 mb 0.00 in0.0 mm 0.00 in0.0 mm 0.00 in0.0 mm
12:14 PM 46.8°F8.2°C 33.6°F0.9°C 60% 12.1 mph SW19.5 kmh SW 27.3 mph43.9 kmh 29.65 in1004.1 mb 0.00 in0.0 mm 0.00 in0.0 mm 0.00 in0.0 mm
12:29 PM 46.4°F8.0°C 34.1°F1.2°C 62% 5.4 mph SW8.7 kmh SW 20.6 mph33.2 kmh 29.64 in1003.7 mb 0.00 in0.0 mm 0.00 in0.0 mm 0.00 in0.0 mm
12:44 PM 47.1°F8.4°C 34.4°F1.3°C 61% 7.6 mph SW12.2 kmh SW 22.1 mph35.6 kmh 29.64 in1003.7 mb 0.00 in0.0 mm 0.00 in0.0 mm 0.00 in0.0 mm
12:59 PM 47.1°F8.4°C 33.9°F1.1°C 60% 11.4 mph SW18.3 kmh SW 24.4 mph39.3 kmh 29.62 in1003.0 mb 0.00 in0.0 mm 0.00 in0.0 mm 0.00 in0.0 mm
01:14 PM 46.9°F8.3°C 33.8°F1.0°C 60% 9.8 mph S15.8 kmh S 19.0 mph30.6 kmh 29.61 in1002.7 mb 0.00 in0.0 mm 0.00 in0.0 mm 0.00 in0.0 mm
01:29 PM 46.8°F8.2°C 33.6°F0.9°C 60% 7.6 mph SSW12.2 kmh SSW 22.1 mph35.6 kmh 29.61 in1002.7 mb 0.00 in0.0 mm 0.00 in0.0 mm 0.00 in0.0 mm
01:44 PM 46.8°F8.2°C 34.0°F1.1°C 61% 3.1 mph S5.0 kmh S 15.2 mph24.5 kmh 29.61 in1002.7 mb 0.00 in0.0 mm 0.00 in0.0 mm 0.00 in0.0 mm
01:59 PM 46.8°F8.2°C 34.0°F1.1°C 61% 6.0 mph S9.7 kmh S 15.9 mph25.6 kmh 29.59 in1002.0 mb 0.00 in0.0 mm 0.00 in0.0 mm 0.00 in0.0 mm
02:14 PM 46.8°F8.2°C 34.0°F1.1°C 61% 7.6 mph SW12.2 kmh SW 13.6 mph21.9 kmh 29.58 in1001.7 mb 0.00 in0.0 mm 0.00 in0.0 mm 0.00 in0.0 mm
02:29 PM 46.4°F8.0°C 34.1°F1.2°C 62% 12.1 mph SSW19.5 kmh SSW 19.0 mph30.6 kmh 29.57 in1001.4 mb 0.00 in0.0 mm 0.00 in0.0 mm 0.00 in0.0 mm
02:44 PM 46.2°F7.9°C 34.3°F1.3°C 63% 8.3 mph SW13.4 kmh SW 14.5 mph23.3 kmh 29.56 in1001.0 mb 0.00 in0.0 mm 0.00 in0.0 mm 0.00 in0.0 mm
02:59 PM 46.0°F7.8°C 34.1°F1.2°C 63% 8.3 mph SW13.4 kmh SW 15.2 mph24.5 kmh 29.55 in1000.7 mb 0.00 in0.0 mm 0.00 in0.0 mm 0.00 in0.0 mm
03:14 PM 45.9°F7.7°C 34.0°F1.1°C 63% 5.4 mph S8.7 kmh S 14.5 mph23.3 kmh 29.54 in1000.3 mb 0.00 in0.0 mm 0.00 in0.0 mm 0.00 in0.0 mm
03:29 PM 45.9°F7.7°C 33.6°F0.9°C 62% 8.3 mph SSW13.4 kmh SSW 17.4 mph28.0 kmh 29.53 in1000.0 mb 0.00 in0.0 mm 0.00 in0.0 mm 0.00 in0.0 mm
03:44 PM 45.3°F7.4°C 34.2°F1.2°C 65% 9.8 mph SW15.8 kmh SW 22.8 mph36.7 kmh 29.52 in999.7 mb 0.00 in0.0 mm 0.00 in0.0 mm 0.00 in0.0 mm
03:59 PM 44.6°F7.0°C 34.7°F1.5°C 68% 6.0 mph S9.7 kmh S 14.5 mph23.3 kmh 29.52 in999.7 mb 0.00 in0.0 mm 0.00 in0.0 mm 0.00 in0.0 mm
04:14 PM 44.2°F6.8°C 35.1°F1.7°C 70% 8.3 mph SSW13.4 kmh SSW 12.1 mph19.5 kmh 29.51 in999.3 mb 0.00 in0.0 mm 0.00 in0.0 mm 0.00 in0.0 mm
04:29 PM 43.3°F6.3°C 35.6°F2.0°C 74% 9.2 mph WNW14.8 kmh WNW 16.8 mph27.0 kmh 29.50 in999.0 mb 0.00 in0.0 mm 0.00 in0.0 mm 0.00 in0.0 mm
04:44 PM 42.6°F5.9°C 35.6°F2.0°C 76% 8.3 mph S13.4 kmh S 13.0 mph20.9 kmh 29.50 in999.0 mb 0.00 in0.0 mm 0.00 in0.0 mm 0.00 in0.0 mm
04:59 PM 42.1°F5.6°C 35.7°F2.1°C 78% 10.7 mph S17.2 kmh S 15.2 mph24.5 kmh 29.49 in998.6 mb 0.00 in0.0 mm 0.00 in0.0 mm 0.00 in0.0 mm
05:14 PM 41.5°F5.3°C 35.8°F2.1°C 80% 8.3 mph SW13.4 kmh SW 14.5 mph23.3 kmh 29.47 in998.0 mb 0.01 in0.3 mm 0.01 in0.3 mm 0.01 in0.3 mm
05:29 PM 41.2°F5.1°C 35.5°F1.9°C 80% 10.7 mph SW17.2 kmh SW 14.5 mph23.3 kmh 29.48 in998.3 mb 0.01 in0.3 mm 0.00 in0.0 mm 0.01 in0.3 mm
05:44 PM 40.6°F4.8°C 35.0°F1.7°C 80% 6.0 mph SSW9.7 kmh SSW 13.0 mph20.9 kmh 29.46 in997.6 mb 0.02 in0.5 mm 0.04 in1.0 mm 0.02 in0.5 mm
05:59 PM 40.5°F4.7°C 35.1°F1.7°C 81% 2.2 mph SW3.5 kmh SW 9.8 mph15.8 kmh 29.45 in997.3 mb 0.04 in1.0 mm 0.08 in2.0 mm 0.04 in1.0 mm
06:14 PM 40.3°F4.6°C 34.9°F1.6°C 81% 1.6 mph SSW2.6 kmh SSW 10.7 mph17.2 kmh 29.44 in997.0 mb 0.02 in0.5 mm 0.00 in0.0 mm 0.04 in1.0 mm
06:29 PM 39.9°F4.4°C 34.6°F1.4°C 81% 2.2 mph S3.5 kmh S 11.4 mph18.3 kmh 29.44 in997.0 mb 0.04 in1.0 mm 0.08 in2.0 mm 0.05 in1.3 mm
06:44 PM 39.7°F4.3°C 34.4°F1.3°C 81% 3.1 mph SSE5.0 kmh SSE 6.0 mph9.7 kmh 29.42 in996.3 mb 0.04 in1.0 mm 0.00 in0.0 mm 0.06 in1.5 mm
06:59 PM 39.6°F4.2°C 34.5°F1.4°C 82% 2.2 mph S3.5 kmh S 8.3 mph13.4 kmh 29.41 in995.9 mb 0.05 in1.3 mm 0.04 in1.0 mm 0.08 in2.0 mm
07:14 PM 39.2°F4.0°C 34.2°F1.2°C 82% 5.4 mph S8.7 kmh S 6.9 mph11.1 kmh 29.39 in995.3 mb 0.01 in0.3 mm 0.00 in0.0 mm 0.09 in2.3 mm
07:29 PM 39.0°F3.9°C 34.0°F1.1°C 82% 4.5 mph S7.2 kmh S 7.6 mph12.2 kmh 29.36 in994.2 mb 0.04 in1.0 mm 0.12 in3.0 mm 0.12 in3.0 mm
07:44 PM 38.8°F3.8°C 33.8°F1.0°C 82% 6.0 mph SE9.7 kmh SE 8.3 mph13.4 kmh 29.35 in993.9 mb 0.04 in1.0 mm 0.00 in0.0 mm 0.12 in3.0 mm
07:59 PM 38.7°F3.7°C 33.6°F0.9°C 82% 4.5 mph SE7.2 kmh SE 8.3 mph13.4 kmh 29.34 in993.6 mb 0.04 in1.0 mm 0.00 in0.0 mm 0.12 in3.0 mm
08:14 PM 38.5°F3.6°C 33.5°F0.8°C 82% 6.0 mph SE9.7 kmh SE 9.2 mph14.8 kmh 29.33 in993.2 mb 0.01 in0.3 mm 0.00 in0.0 mm 0.12 in3.0 mm
08:29 PM 38.5°F3.6°C 33.5°F0.8°C 82% 2.2 mph ESE3.5 kmh ESE 8.3 mph13.4 kmh 29.32 in992.9 mb 0.00 in0.0 mm 0.00 in0.0 mm 0.12 in3.0 mm
08:44 PM 38.5°F3.6°C 33.8°F1.0°C 83% 3.1 mph E5.0 kmh E 6.9 mph11.1 kmh 29.32 in992.9 mb 0.00 in0.0 mm 0.00 in0.0 mm 0.12 in3.0 mm
08:59 PM 38.5°F3.6°C 33.8°F1.0°C 83% 6.0 mph E9.7 kmh E 9.2 mph14.8 kmh 29.27 in991.2 mb 0.01 in0.3 mm 0.04 in1.0 mm 0.13 in3.3 mm
09:14 PM 38.5°F3.6°C 33.8°F1.0°C 83% 3.1 mph NE5.0 kmh NE 9.8 mph15.8 kmh 29.29 in991.9 mb 0.01 in0.3 mm 0.00 in0.0 mm 0.14 in3.6 mm
09:29 PM 38.5°F3.6°C 33.8°F1.0°C 83% 0.7 mph NE1.1 kmh NE 3.8 mph6.1 kmh 29.30 in992.2 mb 0.01 in0.3 mm 0.00 in0.0 mm 0.14 in3.6 mm
09:44 PM 38.5°F3.6°C 33.8°F1.0°C 83% 2.2 mph NE3.5 kmh NE 6.0 mph9.7 kmh 29.28 in991.5 mb 0.02 in0.5 mm 0.04 in1.0 mm 0.15 in3.8 mm
09:59 PM 38.5°F3.6°C 33.8°F1.0°C 83% 0.7 mph NE1.1 kmh NE 4.5 mph7.2 kmh 29.29 in991.9 mb 0.02 in0.5 mm 0.00 in0.0 mm 0.15 in3.8 mm
10:14 PM 38.5°F3.6°C 33.8°F1.0°C 83% 3.1 mph NNE5.0 kmh NNE 5.4 mph8.7 kmh 29.29 in991.9 mb 0.01 in0.3 mm 0.00 in0.0 mm 0.15 in3.8 mm
10:29 PM 38.5°F3.6°C 33.8°F1.0°C 83% 3.1 mph N5.0 kmh N 6.0 mph9.7 kmh 29.30 in992.2 mb 0.01 in0.3 mm 0.00 in0.0 mm 0.15 in3.8 mm
10:44 PM 38.3°F3.5°C 33.6°F0.9°C 83% 6.0 mph N9.7 kmh N 9.2 mph14.8 kmh 29.30 in992.2 mb 0.01 in0.3 mm 0.00 in0.0 mm 0.17 in4.3 mm
10:59 PM 38.1°F3.4°C 33.4°F0.8°C 83% 9.2 mph N14.8 kmh N 12.1 mph19.5 kmh 29.32 in992.9 mb 0.01 in0.3 mm 0.00 in0.0 mm 0.12 in3.0 mm
11:14 PM 37.9°F3.3°C 33.2°F0.7°C 83% 7.6 mph NNW12.2 kmh NNW 13.0 mph20.9 kmh 29.33 in993.2 mb 0.01 in0.3 mm 0.00 in0.0 mm 0.01 in0.3 mm
11:29 PM 37.6°F3.1°C 32.9°F0.5°C 83% 6.9 mph NNW11.1 kmh NNW 15.2 mph24.5 kmh 29.35 in993.9 mb 0.02 in0.5 mm 0.04 in1.0 mm 0.02 in0.5 mm
11:44 PM 37.2°F2.9°C 32.5°F0.3°C 83% 11.4 mph N18.3 kmh N 13.0 mph20.9 kmh 29.36 in994.2 mb 0.04 in1.0 mm 0.08 in2.0 mm 0.04 in1.0 mm
11:59 PM 36.5°F2.5°C 31.8°F-0.1°C 83% 6.0 mph NW9.7 kmh NW 13.0 mph20.9 kmh 29.37 in994.6 mb 0.06 in1.5 mm 0.08 in2.0 mm 0.06 in1.5 mm